Time;durP1;ratioP1;P1;durP2;ratioP2;P2;SDS_P1;SDS_P2;PMS_P1;PMS_P2;Temp;Humidity;BMP_temperature;BMP_pressure;BME280_temperature;BME280_humidity;BME280_pressure;Samples;Min_cycle;Max_cycle;Signal;HPM_P1;HPM_P2
2023/01/08 00:00:06;;;;;;;7.33;6.43;;;11.10;99.90;;;;;;6140905;23;20179;-85
2023/01/08 00:02:33;;;;;;;7.27;6.27;;;11.10;99.90;;;;;;6113700;23;20152;-85
2023/01/08 00:05:00;;;;;;;7.23;6.20;;;11.10;99.90;;;;;;6137396;23;20313;-85
2023/01/08 00:07:30;;;;;;;6.93;5.87;;;11.20;99.90;;;;;;6138144;23;20191;-85
2023/01/08 00:09:59;;;;;;;8.00;6.00;;;11.20;99.90;;;;;;6135246;23;20168;-85
2023/01/08 00:12:25;;;;;;;7.93;6.33;;;11.20;99.90;;;;;;6139101;23;20160;-85
2023/01/08 00:14:53;;;;;;;7.83;5.90;;;11.20;99.90;;;;;;6143590;23;20260;-85
2023/01/08 00:17:20;;;;;;;7.30;5.77;;;11.20;99.90;;;;;;6133151;23;20167;-85
2023/01/08 00:19:47;;;;;;;7.27;5.60;;;11.20;99.90;;;;;;6154987;23;20187;-85
2023/01/08 00:22:14;;;;;;;6.50;5.53;;;11.20;99.90;;;;;;6129505;23;20152;-85
2023/01/08 00:24:41;;;;;;;11.23;5.93;;;11.20;99.90;;;;;;6129064;23;20187;-85
2023/01/08 00:27:07;;;;;;;7.80;6.20;;;11.20;99.90;;;;;;6130153;23;20164;-85
2023/01/08 00:29:35;;;;;;;9.50;5.90;;;11.20;99.90;;;;;;6130991;23;20164;-88
2023/01/08 00:32:01;;;;;;;7.53;6.53;;;11.20;99.90;;;;;;6157563;23;20247;-88
2023/01/08 00:34:27;;;;;;;7.57;5.70;;;11.20;99.90;;;;;;6132332;23;20188;-88
2023/01/08 00:36:55;;;;;;;9.83;6.47;;;11.20;99.90;;;;;;6157648;23;20156;-89
2023/01/08 00:39:21;;;;;;;9.53;6.30;;;11.20;99.90;;;;;;6132717;23;20167;-88
2023/01/08 00:41:48;;;;;;;7.63;6.43;;;11.20;99.90;;;;;;6132295;23;20199;-88
2023/01/08 00:44:15;;;;;;;7.47;6.20;;;11.20;99.90;;;;;;6131222;23;20168;-85
2023/01/08 00:46:41;;;;;;;6.33;5.73;;;11.20;99.90;;;;;;6129169;23;20165;-85
2023/01/08 00:49:07;;;;;;;7.93;5.90;;;11.20;99.90;;;;;;6192174;23;20164;-86
2023/01/08 00:51:34;;;;;;;8.00;6.50;;;11.20;99.90;;;;;;6156552;23;20646;-88
2023/01/08 00:54:01;;;;;;;7.07;6.23;;;11.10;99.90;;;;;;6131232;23;20611;-87
2023/01/08 00:56:27;;;;;;;9.17;6.20;;;11.20;99.90;;;;;;6132958;23;20369;-86
2023/01/08 00:58:54;;;;;;;9.33;6.13;;;11.20;99.90;;;;;;6132220;23;20195;-88
2023/01/08 01:01:22;;;;;;;8.10;6.27;;;11.20;99.90;;;;;;6163922;23;20187;-85
2023/01/08 01:03:50;;;;;;;11.67;6.30;;;11.20;99.90;;;;;;6170536;23;20164;-85
2023/01/08 01:06:18;;;;;;;7.17;5.93;;;11.20;99.90;;;;;;6168727;23;20558;-84
2023/01/08 01:08:45;;;;;;;7.37;6.40;;;11.20;99.90;;;;;;6143713;23;20156;-85
2023/01/08 01:11:25;;;;;;;7.70;6.20;;;11.20;99.90;;;;;;6142457;23;20156;-84
2023/01/08 01:13:56;;;;;;;6.97;6.23;;;11.20;99.90;;;;;;6141945;23;20174;-85
2023/01/08 01:16:26;;;;;;;7.27;6.20;;;11.20;99.90;;;;;;6168212;23;20159;-85
2023/01/08 01:18:54;;;;;;;8.40;5.93;;;11.20;99.90;;;;;;6142536;23;20164;-84
2023/01/08 01:21:31;;;;;;;7.60;6.00;;;11.20;99.90;;;;;;6166896;23;20210;-85
2023/01/08 01:24:23;;;;;;;8.80;6.70;;;11.20;99.90;;;;;;6144149;23;20151;-85
2023/01/08 01:26:52;;;;;;;7.43;5.93;;;11.20;99.90;;;;;;6027791;23;20170;-85
2023/01/08 01:29:19;;;;;;;7.60;6.53;;;11.20;99.90;;;;;;6027354;23;20163;-84
2023/01/08 01:31:48;;;;;;;7.73;6.37;;;11.20;99.90;;;;;;6051238;23;20575;-85
2023/01/08 01:34:21;;;;;;;6.90;6.07;;;11.20;99.90;;;;;;6023437;23;20162;-86
2023/01/08 01:36:55;;;;;;;9.27;6.83;;;11.20;99.90;;;;;;6026925;23;20179;-84
2023/01/08 01:39:23;;;;;;;7.90;6.30;;;11.30;99.90;;;;;;6050986;23;20201;-84
2023/01/08 01:41:51;;;;;;;8.07;6.70;;;11.30;99.90;;;;;;6051207;23;20190;-84
2023/01/08 01:44:42;;;;;;;10.23;6.80;;;11.30;99.90;;;;;;6074183;23;20338;-85
2023/01/08 01:47:37;;;;;;;6.93;6.20;;;11.30;99.90;;;;;;6043659;23;20531;-85
2023/01/08 01:50:27;;;;;;;7.80;6.27;;;11.30;99.90;;;;;;6050701;23;20168;-84
2023/01/08 01:53:31;;;;;;;6.30;5.70;;;11.30;99.90;;;;;;6018602;23;20222;-84
2023/01/08 01:55:59;;;;;;;7.20;5.70;;;11.30;99.90;;;;;;6034868;23;20174;-85
2023/01/08 01:58:31;;;;;;;6.17;5.53;;;11.30;99.90;;;;;;6108442;23;20248;-85
2023/01/08 02:01:05;;;;;;;9.87;6.03;;;11.30;99.90;;;;;;6125883;23;20587;-85
2023/01/08 02:03:38;;;;;;;6.50;5.80;;;11.30;99.90;;;;;;6127779;23;20155;-85
2023/01/08 02:06:59;;;;;;;9.03;6.00;;;11.30;99.90;;;;;;6135750;23;20164;-85
2023/01/08 02:09:46;;;;;;;7.37;5.47;;;11.20;99.90;;;;;;6108044;23;20180;-85
2023/01/08 02:12:54;;;;;;;8.70;5.67;;;11.20;99.90;;;;;;6142685;23;20175;-85
2023/01/08 02:15:42;;;;;;;9.27;5.90;;;11.20;99.90;;;;;;6167546;23;20184;-85
2023/01/08 02:18:19;;;;;;;6.60;5.63;;;11.20;99.90;;;;;;6154144;23;20236;-85
2023/01/08 02:21:07;;;;;;;7.50;5.43;;;11.20;99.90;;;;;;6129139;23;20543;-84
2023/01/08 02:23:59;;;;;;;10.07;5.47;;;11.20;99.90;;;;;;6131748;23;20192;-84
2023/01/08 02:26:34;;;;;;;6.57;5.13;;;11.20;99.90;;;;;;6156632;23;20160;-87
2023/01/08 02:29:22;;;;;;;6.07;5.07;;;11.20;99.90;;;;;;6132983;23;20295;-87
2023/01/08 02:31:51;;;;;;;7.03;5.10;;;11.20;99.90;;;;;;6142803;23;20155;-86
2023/01/08 02:34:18;;;;;;;7.33;5.63;;;11.20;99.90;;;;;;6136170;23;20260;-87
2023/01/08 02:36:54;;;;;;;6.17;5.20;;;11.20;99.90;;;;;;6133698;23;20156;-87
2023/01/08 02:40:19;;;;;;;6.00;4.90;;;11.20;99.90;;;;;;6131957;23;20547;-85
2023/01/08 02:43:07;;;;;;;6.30;5.33;;;11.20;99.90;;;;;;6131110;23;20281;-85
2023/01/08 02:45:45;;;;;;;6.03;5.03;;;11.20;99.90;;;;;;6132825;23;20603;-85
2023/01/08 02:48:40;;;;;;;17.90;4.83;;;11.20;99.90;;;;;;6131205;23;20183;-85
2023/01/08 02:51:32;;;;;;;6.90;5.03;;;11.10;99.90;;;;;;6154815;23;20203;-84
2023/01/08 02:54:07;;;;;;;8.57;4.97;;;11.10;99.90;;;;;;6128240;23;20503;-85
2023/01/08 02:56:44;;;;;;;7.03;5.00;;;11.10;99.90;;;;;;6131672;23;20479;-84
2023/01/08 02:59:14;;;;;;;6.97;4.70;;;11.10;99.90;;;;;;6128910;23;20183;-85
2023/01/08 03:01:44;;;;;;;5.43;4.93;;;11.20;99.90;;;;;;6130801;23;20184;-85
2023/01/08 03:04:19;;;;;;;8.70;4.40;;;11.20;99.90;;;;;;6130909;23;20251;-84
2023/01/08 03:06:47;;;;;;;7.13;4.53;;;11.20;99.90;;;;;;6130857;23;20156;-84
2023/01/08 03:09:15;;;;;;;6.67;5.07;;;11.20;99.90;;;;;;6155642;23;20189;-88
2023/01/08 03:11:56;;;;;;;6.07;5.10;;;11.20;99.90;;;;;;6157900;23;20180;-87
2023/01/08 03:14:43;;;;;;;5.97;5.20;;;11.20;99.90;;;;;;6132912;23;20160;-87
2023/01/08 03:17:35;;;;;;;6.60;4.80;;;11.20;99.90;;;;;;6132247;23;20519;-86
2023/01/08 03:20:13;;;;;;;7.40;5.40;;;11.20;99.90;;;;;;6131386;23;20199;-83
2023/01/08 03:22:48;;;;;;;5.67;4.97;;;11.20;99.90;;;;;;6154987;23;20160;-86
2023/01/08 03:25:21;;;;;;;6.90;5.13;;;11.20;99.90;;;;;;6155933;23;20159;-86
2023/01/08 03:28:02;;;;;;;7.07;5.20;;;11.20;99.90;;;;;;6131554;23;20210;-86
2023/01/08 03:30:34;;;;;;;5.63;4.90;;;11.20;99.90;;;;;;6135737;23;20152;-89
2023/01/08 03:33:10;;;;;;;8.77;5.10;;;11.20;99.90;;;;;;6148037;23;20180;-89
2023/01/08 03:35:42;;;;;;;5.73;5.00;;;11.20;99.90;;;;;;6149213;23;20202;-89
2023/01/08 03:38:31;;;;;;;5.53;4.93;;;11.20;99.90;;;;;;6147587;23;20168;-89
2023/01/08 03:41:12;;;;;;;5.93;5.07;;;11.20;99.90;;;;;;6171418;23;20266;-89
2023/01/08 03:43:40;;;;;;;7.37;5.30;;;11.20;99.90;;;;;;6146573;23;20167;-90
2023/01/08 03:46:29;;;;;;;8.07;5.23;;;11.20;99.90;;;;;;6147819;23;20252;-88
2023/01/08 03:48:59;;;;;;;5.23;4.20;;;11.20;99.90;;;;;;6149695;23;20160;-89
2023/01/08 03:51:37;;;;;;;5.30;4.80;;;11.20;99.90;;;;;;6147565;23;20156;-89
2023/01/08 03:54:15;;;;;;;6.53;5.13;;;11.20;99.90;;;;;;6151379;23;20156;-89
2023/01/08 03:56:42;;;;;;;6.63;4.17;;;11.20;99.90;;;;;;6148795;23;20160;-90
2023/01/08 03:59:23;;;;;;;7.00;5.23;;;11.20;99.90;;;;;;6141911;23;20156;-88
2023/01/08 04:01:50;;;;;;;6.87;4.80;;;11.20;99.90;;;;;;6162420;23;20227;-90
2023/01/08 04:04:17;;;;;;;5.57;4.80;;;11.20;99.90;;;;;;6148639;23;20249;-89
2023/01/08 04:06:45;;;;;;;6.30;4.70;;;11.20;99.90;;;;;;6174379;23;20160;-86
2023/01/08 04:09:18;;;;;;;6.50;4.80;;;11.20;99.90;;;;;;6146525;23;20157;-86
2023/01/08 04:11:49;;;;;;;6.37;4.37;;;11.20;99.90;;;;;;6142598;23;20203;-87
2023/01/08 04:14:19;;;;;;;6.83;4.47;;;11.30;99.90;;;;;;6146356;23;20168;-85
2023/01/08 04:16:46;;;;;;;5.40;4.30;;;11.30;99.90;;;;;;6145877;23;20472;-86
2023/01/08 04:19:13;;;;;;;4.43;4.03;;;11.30;99.90;;;;;;6163580;23;20191;-86
2023/01/08 04:21:45;;;;;;;6.43;4.57;;;11.30;99.90;;;;;;6140155;23;20204;-86
2023/01/08 04:24:19;;;;;;;4.93;4.43;;;11.30;99.90;;;;;;6147400;23;20160;-86
2023/01/08 04:26:54;;;;;;;5.90;4.50;;;11.20;99.90;;;;;;6171524;23;20216;-89
2023/01/08 04:29:22;;;;;;;6.17;4.60;;;11.10;99.90;;;;;;6142986;23;20141;-88
2023/01/08 04:31:51;;;;;;;5.80;4.63;;;11.10;99.90;;;;;;6147833;23;20238;-87
2023/01/08 04:34:18;;;;;;;5.47;4.87;;;11.10;99.90;;;;;;6142017;23;20178;-87
2023/01/08 04:36:45;;;;;;;6.33;4.67;;;11.10;99.90;;;;;;6136107;23;20183;-87
2023/01/08 04:39:12;;;;;;;5.10;4.47;;;11.10;99.90;;;;;;6130500;23;20175;-86
2023/01/08 04:41:39;;;;;;;7.10;4.83;;;11.20;99.90;;;;;;6130816;23;20187;-87
2023/01/08 04:44:05;;;;;;;11.60;5.27;;;11.20;99.90;;;;;;6155620;23;20247;-88
2023/01/08 04:46:33;;;;;;;7.13;4.87;;;11.10;99.90;;;;;;6132075;23;20614;-87
2023/01/08 04:49:07;;;;;;;8.43;4.80;;;11.10;99.90;;;;;;6146814;23;20160;-90
2023/01/08 04:51:35;;;;;;;6.97;4.73;;;11.20;99.90;;;;;;6141614;23;20203;-89
2023/01/08 04:54:04;;;;;;;7.17;4.80;;;11.20;99.90;;;;;;6141567;23;20164;-88
2023/01/08 04:56:35;;;;;;;4.90;4.40;;;11.20;99.90;;;;;;6146120;23;20194;-90
2023/01/08 04:59:04;;;;;;;7.00;4.70;;;11.20;99.90;;;;;;6132895;23;20168;-89
2023/01/08 05:01:32;;;;;;;7.40;4.73;;;11.20;99.90;;;;;;6131141;23;20184;-89
2023/01/08 05:04:04;;;;;;;6.97;4.60;;;11.20;99.90;;;;;;6157728;23;20170;-89
2023/01/08 05:06:33;;;;;;;5.80;4.73;;;11.20;99.90;;;;;;6131315;23;20164;-88
2023/01/08 05:08:59;;;;;;;6.27;4.80;;;11.20;99.90;;;;;;6156175;23;20215;-89
2023/01/08 05:11:26;;;;;;;5.97;4.60;;;11.20;99.90;;;;;;6154855;23;20171;-88
2023/01/08 05:13:54;;;;;;;6.17;5.03;;;11.20;99.90;;;;;;6130122;23;20618;-85
2023/01/08 05:16:22;;;;;;;5.80;4.90;;;11.20;99.90;;;;;;6131025;23;20673;-89
2023/01/08 05:18:49;;;;;;;7.87;4.80;;;11.30;99.90;;;;;;6131593;23;20156;-88
2023/01/08 05:21:16;;;;;;;7.60;5.00;;;11.30;99.90;;;;;;6179956;23;20255;-89
2023/01/08 05:23:46;;;;;;;9.13;5.03;;;11.30;99.90;;;;;;6131147;23;20560;-87
2023/01/08 05:26:14;;;;;;;7.43;4.87;;;11.40;99.90;;;;;;6130031;23;20163;-90
2023/01/08 05:28:41;;;;;;;5.87;4.90;;;11.40;99.90;;;;;;6130414;23;20156;-89
2023/01/08 05:31:08;;;;;;;5.23;4.40;;;11.40;99.90;;;;;;6154360;23;20192;-89
2023/01/08 05:33:34;;;;;;;6.23;4.40;;;11.40;99.90;;;;;;6156196;23;20175;-89
2023/01/08 05:36:05;;;;;;;6.37;4.57;;;11.40;99.90;;;;;;6155697;23;20417;-89
2023/01/08 05:38:33;;;;;;;6.43;4.40;;;11.40;99.90;;;;;;6130257;23;20647;-90
2023/01/08 05:41:05;;;;;;;7.67;4.80;;;11.50;99.90;;;;;;6139278;23;20215;-89
2023/01/08 05:43:40;;;;;;;6.70;4.40;;;11.50;99.90;;;;;;6197772;23;20152;-89
2023/01/08 05:46:13;;;;;;;5.30;4.17;;;11.50;99.90;;;;;;6126812;23;20161;-89
2023/01/08 05:48:43;;;;;;;5.70;4.53;;;11.50;99.90;;;;;;6145349;23;20160;-90
2023/01/08 05:51:15;;;;;;;5.93;4.40;;;11.60;99.90;;;;;;6146229;23;20540;-87
2023/01/08 05:53:41;;;;;;;6.33;4.77;;;11.60;99.90;;;;;;6146390;23;20152;-89
2023/01/08 05:56:11;;;;;;;7.37;4.43;;;11.70;99.90;;;;;;6172345;23;20168;-87
2023/01/08 05:58:39;;;;;;;5.97;4.40;;;11.70;99.90;;;;;;6146580;23;20164;-87
2023/01/08 06:01:20;;;;;;;5.33;3.90;;;11.80;99.90;;;;;;6146292;23;20234;-85
2023/01/08 06:03:48;;;;;;;7.47;3.97;;;11.80;99.90;;;;;;6202054;23;20160;-84
2023/01/08 06:06:25;;;;;;;6.37;4.60;;;11.80;99.90;;;;;;6175164;23;20223;-88
2023/01/08 06:08:55;;;;;;;6.60;4.33;;;11.80;99.90;;;;;;6176682;23;20298;-89
2023/01/08 06:11:31;;;;;;;5.20;4.50;;;11.90;99.90;;;;;;6152965;23;20191;-89
2023/01/08 06:14:06;;;;;;;7.30;4.40;;;11.90;99.90;;;;;;6152256;23;20214;-85
2023/01/08 06:16:53;;;;;;;5.20;4.40;;;12.00;99.90;;;;;;6154620;23;20165;-90
2023/01/08 06:19:21;;;;;;;6.00;4.40;;;12.10;99.90;;;;;;6113868;23;20172;-88
2023/01/08 06:21:48;;;;;;;5.67;4.10;;;12.10;99.90;;;;;;6102576;23;20189;-88
2023/01/08 06:24:15;;;;;;;5.13;4.17;;;12.20;99.90;;;;;;6101313;23;20235;-87
2023/01/08 06:26:43;;;;;;;6.80;4.60;;;12.20;99.90;;;;;;6101158;23;20616;-84
2023/01/08 06:29:09;;;;;;;6.37;4.37;;;12.20;99.90;;;;;;6124173;23;20156;-85
2023/01/08 06:31:36;;;;;;;7.53;4.20;;;12.20;99.90;;;;;;6118065;23;20160;-83
2023/01/08 06:34:03;;;;;;;6.63;4.40;;;12.20;99.90;;;;;;6099255;23;20204;-85
2023/01/08 06:36:29;;;;;;;5.37;4.13;;;12.20;99.90;;;;;;6099774;23;20248;-86
2023/01/08 06:38:55;;;;;;;5.00;4.10;;;12.20;99.90;;;;;;6123524;23;20208;-85
2023/01/08 06:41:26;;;;;;;5.10;4.10;;;12.30;99.90;;;;;;6101064;23;20287;-88
2023/01/08 06:44:02;;;;;;;5.83;4.37;;;12.30;99.90;;;;;;6118415;23;20165;-88
2023/01/08 06:46:38;;;;;;;5.87;4.07;;;12.30;99.90;;;;;;6120638;23;20176;-88
2023/01/08 06:49:12;;;;;;;6.00;4.30;;;12.30;99.90;;;;;;6119232;23;20161;-85
2023/01/08 06:51:39;;;;;;;6.33;4.37;;;12.30;99.90;;;;;;6116118;23;20192;-86
2023/01/08 06:54:06;;;;;;;6.33;4.37;;;12.20;99.90;;;;;;6116811;23;20198;-88
2023/01/08 06:56:36;;;;;;;5.63;4.17;;;12.20;99.90;;;;;;6146182;23;20216;-88
2023/01/08 06:59:05;;;;;;;5.03;4.50;;;12.20;99.90;;;;;;6117359;23;20168;-89
2023/01/08 07:01:33;;;;;;;6.57;4.30;;;12.20;99.90;;;;;;6096033;23;20181;-88
2023/01/08 07:04:06;;;;;;;5.27;4.60;;;12.10;99.90;;;;;;6118495;23;20180;-87
2023/01/08 07:06:33;;;;;;;6.83;4.37;;;12.10;99.90;;;;;;6120796;23;20156;-85
2023/01/08 07:09:03;;;;;;;5.97;4.33;;;12.10;99.90;;;;;;6146270;23;20210;-85
2023/01/08 07:11:38;;;;;;;5.83;4.50;;;12.10;99.90;;;;;;6149266;23;20168;-85
2023/01/08 07:14:12;;;;;;;7.80;4.63;;;12.10;99.90;;;;;;6126824;23;20234;-85
2023/01/08 07:16:42;;;;;;;5.37;4.47;;;12.10;99.90;;;;;;6148586;23;20172;-85
2023/01/08 07:19:21;;;;;;;5.43;4.43;;;12.10;99.90;;;;;;6171358;23;20164;-87
2023/01/08 07:21:53;;;;;;;7.43;4.80;;;12.10;99.90;;;;;;6172383;23;20227;-87
2023/01/08 07:24:24;;;;;;;5.63;4.97;;;12.20;99.90;;;;;;6175699;23;20156;-88
2023/01/08 07:26:57;;;;;;;5.40;4.77;;;12.30;99.90;;;;;;6147460;23;20183;-88
2023/01/08 07:29:26;;;;;;;6.07;4.80;;;12.30;99.90;;;;;;6149959;23;20154;-88
2023/01/08 07:31:59;;;;;;;5.23;4.73;;;12.30;99.90;;;;;;6124051;23;20169;-87
2023/01/08 07:34:26;;;;;;;6.43;4.70;;;12.40;99.90;;;;;;6114756;23;20164;-89
2023/01/08 07:36:52;;;;;;;5.93;4.80;;;12.70;99.90;;;;;;6131830;23;20160;-90
2023/01/08 07:39:19;;;;;;;7.90;5.20;;;12.80;99.90;;;;;;6155476;23;20172;-84
2023/01/08 07:41:47;;;;;;;8.83;4.83;;;13.10;99.90;;;;;;6154065;23;20254;-85
2023/01/08 07:44:13;;;;;;;6.20;4.97;;;13.30;99.90;;;;;;6129760;23;20207;-87
2023/01/08 07:46:39;;;;;;;8.17;4.53;;;13.40;99.90;;;;;;6191456;23;20160;-88
2023/01/08 07:49:06;;;;;;;6.73;5.07;;;13.30;99.90;;;;;;6155817;23;20152;-87
2023/01/08 07:51:33;;;;;;;7.17;5.03;;;13.20;99.90;;;;;;6131536;23;20191;-85
2023/01/08 07:54:01;;;;;;;6.37;4.73;;;13.00;99.90;;;;;;6128389;23;20207;-84
2023/01/08 07:56:27;;;;;;;5.83;4.90;;;12.90;99.90;;;;;;6129515;23;20557;-88
2023/01/08 07:58:53;;;;;;;7.50;4.97;;;12.90;99.90;;;;;;6131029;23;20254;-88
2023/01/08 08:01:24;;;;;;;6.60;4.70;;;12.90;99.90;;;;;;6130306;23;20255;-85
2023/01/08 08:03:58;;;;;;;6.30;4.77;;;12.90;99.90;;;;;;6146648;23;20191;-85
2023/01/08 08:06:24;;;;;;;7.30;5.00;;;12.80;99.90;;;;;;6145543;23;20161;-85
2023/01/08 08:08:52;;;;;;;7.00;4.40;;;12.80;99.90;;;;;;6147854;23;20295;-87
2023/01/08 08:11:24;;;;;;;6.23;4.33;;;12.80;99.90;;;;;;6148313;23;20250;-87
2023/01/08 08:13:54;;;;;;;5.97;4.83;;;12.70;99.90;;;;;;6199983;23;20156;-87
2023/01/08 08:16:26;;;;;;;6.63;4.93;;;12.70;99.90;;;;;;6148982;23;20160;-88
2023/01/08 08:19:03;;;;;;;6.83;5.47;;;12.60;99.90;;;;;;6146257;23;20148;-88
2023/01/08 08:21:46;;;;;;;7.40;5.23;;;12.60;99.90;;;;;;6140648;23;20519;-87
2023/01/08 08:24:23;;;;;;;7.97;6.00;;;12.60;99.90;;;;;;6145172;23;20156;-87
2023/01/08 08:26:54;;;;;;;8.67;6.40;;;12.60;99.90;;;;;;6145147;23;20187;-85
2023/01/08 08:29:25;;;;;;;8.73;5.67;;;12.60;99.90;;;;;;6148736;23;20160;-85
2023/01/08 08:31:53;;;;;;;7.27;5.50;;;12.60;99.90;;;;;;6151539;23;20204;-85
2023/01/08 08:34:21;;;;;;;8.57;5.33;;;12.60;99.90;;;;;;6123585;23;20616;-85
2023/01/08 08:36:56;;;;;;;8.20;5.10;;;12.60;99.90;;;;;;6210394;23;20229;-84
2023/01/08 08:39:23;;;;;;;8.50;5.73;;;12.60;99.90;;;;;;6143634;23;20184;-79
2023/01/08 08:41:53;;;;;;;9.53;7.13;;;12.70;99.90;;;;;;6145911;23;20176;-84
2023/01/08 08:44:21;;;;;;;13.30;7.73;;;12.70;99.90;;;;;;6147909;23;20149;-83
2023/01/08 08:46:55;;;;;;;8.77;6.37;;;12.90;99.90;;;;;;6172489;23;20191;-86
2023/01/08 08:49:30;;;;;;;7.90;6.37;;;12.90;99.90;;;;;;6147608;23;20167;-84
2023/01/08 08:51:59;;;;;;;8.63;6.67;;;13.00;99.90;;;;;;6147264;23;20156;-84
2023/01/08 08:54:29;;;;;;;7.27;5.67;;;13.00;99.90;;;;;;6142980;23;20231;-85
2023/01/08 08:56:58;;;;;;;10.30;6.93;;;13.00;99.90;;;;;;6146560;23;20222;-83
2023/01/08 08:59:37;;;;;;;10.33;7.30;;;13.10;99.90;;;;;;6144713;23;20168;-84
2023/01/08 09:02:05;;;;;;;10.50;5.97;;;13.20;99.90;;;;;;6140074;23;20191;-83
2023/01/08 09:04:33;;;;;;;9.63;6.07;;;13.10;99.90;;;;;;6193020;23;20148;-82
2023/01/08 09:07:00;;;;;;;9.90;6.30;;;13.20;99.90;;;;;;6161957;23;20664;-84
2023/01/08 09:09:27;;;;;;;8.77;5.50;;;13.20;99.90;;;;;;6130446;23;20256;-83
2023/01/08 09:11:56;;;;;;;7.37;5.73;;;13.20;99.90;;;;;;6142478;23;20164;-81
2023/01/08 09:14:24;;;;;;;8.63;5.60;;;13.20;99.90;;;;;;6111907;23;20599;-82
2023/01/08 09:16:54;;;;;;;6.60;5.53;;;13.20;99.90;;;;;;6170485;23;20160;-82
2023/01/08 09:19:25;;;;;;;8.33;5.30;;;13.30;99.90;;;;;;6178647;23;20255;-82
2023/01/08 09:21:56;;;;;;;5.97;5.00;;;13.40;99.90;;;;;;6144112;23;20666;-80
2023/01/08 09:24:25;;;;;;;8.53;5.93;;;13.50;99.90;;;;;;6169769;23;20160;-84
2023/01/08 09:26:55;;;;;;;6.30;5.00;;;13.60;99.90;;;;;;6120619;23;20168;-82
2023/01/08 09:29:22;;;;;;;8.10;4.93;;;13.60;99.90;;;;;;6168741;23;20180;-81
2023/01/08 09:32:05;;;;;;;6.50;5.30;;;13.70;99.90;;;;;;6147372;23;20179;-83
2023/01/08 09:34:37;;;;;;;8.00;5.70;;;13.80;99.90;;;;;;6120482;23;20164;-84
2023/01/08 09:37:05;;;;;;;7.80;5.80;;;13.80;99.90;;;;;;6204694;23;20156;-79
2023/01/08 09:39:40;;;;;;;9.47;5.70;;;13.90;99.90;;;;;;6204242;23;20656;-83
2023/01/08 09:42:12;;;;;;;9.13;6.03;;;14.00;99.90;;;;;;6145713;23;20164;-84
2023/01/08 09:44:49;;;;;;;7.27;5.53;;;14.00;99.90;;;;;;6142477;23;20164;-87
2023/01/08 09:47:42;;;;;;;7.53;5.50;;;14.00;99.90;;;;;;6142769;23;20400;-84
2023/01/08 09:50:27;;;;;;;7.93;5.70;;;14.10;99.90;;;;;;6148438;23;20399;-83
2023/01/08 09:53:02;;;;;;;7.47;6.10;;;14.10;99.90;;;;;;6145713;23;20171;-85
2023/01/08 09:55:33;;;;;;;9.13;5.43;;;14.20;99.90;;;;;;6148257;23;20160;-86
2023/01/08 09:58:05;;;;;;;8.43;5.33;;;14.20;99.90;;;;;;6146237;23;20168;-81
2023/01/08 10:00:34;;;;;;;5.60;4.87;;;14.20;99.90;;;;;;6165079;23;20176;-83
2023/01/08 10:03:10;;;;;;;6.77;4.83;;;14.20;99.90;;;;;;6165233;23;20610;-85
2023/01/08 10:05:40;;;;;;;7.27;5.50;;;14.20;99.90;;;;;;6166475;23;20187;-82
2023/01/08 10:08:23;;;;;;;7.57;5.30;;;14.30;99.90;;;;;;6143021;23;20159;-83
2023/01/08 10:10:51;;;;;;;7.00;5.70;;;14.20;99.90;;;;;;6143857;23;20156;-81
2023/01/08 10:13:18;;;;;;;8.70;5.47;;;14.30;99.90;;;;;;6142756;23;20221;-85
2023/01/08 10:15:51;;;;;;;5.87;5.13;;;14.30;99.90;;;;;;6143195;23;20176;-85
2023/01/08 10:18:24;;;;;;;8.20;4.80;;;14.30;99.90;;;;;;6137240;23;20821;-82
2023/01/08 10:20:54;;;;;;;7.40;5.33;;;14.40;99.90;;;;;;6169498;23;20176;-83
2023/01/08 10:23:22;;;;;;;8.83;5.13;;;14.40;99.90;;;;;;6142773;23;20216;-84
2023/01/08 10:25:54;;;;;;;7.03;5.53;;;14.40;99.90;;;;;;6139195;23;20187;-84
2023/01/08 10:28:24;;;;;;;5.83;4.93;;;14.30;99.90;;;;;;6160326;23;20149;-83
2023/01/08 10:31:03;;;;;;;7.60;5.03;;;14.40;99.90;;;;;;6137533;23;20165;-84
2023/01/08 10:33:51;;;;;;;6.83;5.87;;;14.40;99.90;;;;;;6130424;23;20164;-84
2023/01/08 10:36:26;;;;;;;6.13;5.00;;;14.40;99.90;;;;;;6155564;23;20176;-86
2023/01/08 10:39:02;;;;;;;12.07;8.20;;;14.40;99.90;;;;;;6133997;23;20202;-84
2023/01/08 10:41:38;;;;;;;9.17;6.23;;;14.40;99.90;;;;;;6135593;23;20184;-86
2023/01/08 10:44:20;;;;;;;8.60;6.50;;;14.40;99.90;;;;;;6138580;23;20152;-85
2023/01/08 10:46:52;;;;;;;8.93;7.23;;;14.40;99.90;;;;;;6135217;23;20682;-88
2023/01/08 10:49:42;;;;;;;11.97;8.60;;;14.30;99.90;;;;;;6164981;23;20230;-86
2023/01/08 10:52:32;;;;;;;9.40;6.77;;;14.40;99.90;;;;;;6130031;23;20464;-86
2023/01/08 10:55:21;;;;;;;7.17;6.10;;;14.40;99.90;;;;;;6134003;23;20165;-87
2023/01/08 10:58:15;;;;;;;6.77;5.60;;;14.40;99.90;;;;;;6131669;23;20152;-86
2023/01/08 11:00:45;;;;;;;6.47;5.50;;;14.50;99.90;;;;;;6136522;23;20176;-85
2023/01/08 11:03:31;;;;;;;9.43;6.37;;;14.50;99.90;;;;;;6134549;23;20160;-86
2023/01/08 11:05:59;;;;;;;7.90;5.10;;;14.60;99.90;;;;;;6138444;23;20270;-85
2023/01/08 11:08:25;;;;;;;5.73;4.90;;;14.70;99.90;;;;;;6117537;23;20841;-87
2023/01/08 11:11:01;;;;;;;6.37;5.30;;;14.70;99.90;;;;;;6144026;23;20225;-86
2023/01/08 11:13:32;;;;;;;6.83;5.67;;;14.70;99.90;;;;;;6144719;23;20156;-85
2023/01/08 11:16:06;;;;;;;7.00;5.77;;;14.70;99.90;;;;;;6144628;23;20168;-80
2023/01/08 11:18:58;;;;;;;7.93;5.07;;;14.90;99.90;;;;;;6163895;23;20164;-84
2023/01/08 11:21:30;;;;;;;9.17;5.30;;;15.00;99.90;;;;;;6143222;23;20211;-82
2023/01/08 11:24:23;;;;;;;8.97;5.03;;;15.00;99.90;;;;;;6138667;23;20600;-83
2023/01/08 11:27:23;;;;;;;7.43;5.30;;;15.10;99.90;;;;;;6156027;23;20156;-84
2023/01/08 11:30:17;;;;;;;6.60;5.30;;;15.40;99.90;;;;;;6135466;23;20215;-86
2023/01/08 11:32:43;;;;;;;7.33;5.23;;;15.50;99.90;;;;;;6140929;23;20156;-80
2023/01/08 11:35:25;;;;;;;6.30;5.57;;;15.60;99.90;;;;;;6163780;23;20161;-80
2023/01/08 11:37:59;;;;;;;8.07;5.43;;;15.50;99.90;;;;;;6139767;23;20468;-85
2023/01/08 11:40:56;;;;;;;6.20;5.13;;;15.50;99.90;;;;;;6135617;23;20408;-86
2023/01/08 11:44:01;;;;;;;6.97;5.50;;;15.50;99.90;;;;;;6167235;23;20156;-84
2023/01/08 11:46:57;;;;;;;6.77;5.67;;;15.40;99.90;;;;;;6142241;23;20180;-83
2023/01/08 11:50:40;;;;;;;6.30;5.57;;;15.10;99.90;;;;;;6123558;23;20184;-85
2023/01/08 11:53:37;;;;;;;7.70;5.53;;;15.00;99.90;;;;;;6008142;23;20163;-83
2023/01/08 11:56:16;;;;;;;7.40;6.30;;;14.90;99.90;;;;;;6069513;23;20218;-81
2023/01/08 11:59:30;;;;;;;7.90;6.40;;;14.80;99.90;;;;;;6146161;23;20299;-84
2023/01/08 12:02:16;;;;;;;7.43;5.67;;;14.70;99.90;;;;;;6146019;23;20187;-84
2023/01/08 12:05:32;;;;;;;8.90;6.00;;;14.60;99.90;;;;;;6147468;23;20160;-80
2023/01/08 12:08:48;;;;;;;7.53;6.27;;;14.60;99.90;;;;;;6173226;23;20179;-85
2023/01/08 12:11:39;;;;;;;10.07;6.23;;;14.50;99.90;;;;;;6145354;23;20160;-83
2023/01/08 12:14:39;;;;;;;6.73;5.83;;;14.40;99.90;;;;;;6191304;23;20287;-84
2023/01/08 12:18:04;;;;;;;6.87;5.70;;;14.40;99.90;;;;;;6142040;23;20152;-84
2023/01/08 12:21:12;;;;;;;7.10;5.90;;;14.40;99.90;;;;;;6143324;23;20238;-85
2023/01/08 12:24:28;;;;;;;6.63;5.63;;;14.40;99.90;;;;;;6147854;23;20160;-86
2023/01/08 12:27:40;;;;;;;8.13;6.50;;;14.40;99.90;;;;;;6088055;23;20164;-87
2023/01/08 12:30:42;;;;;;;7.37;6.47;;;14.40;99.90;;;;;;6171430;23;20198;-86
2023/01/08 12:33:48;;;;;;;7.53;5.80;;;14.30;99.90;;;;;;6142265;23;20174;-86
2023/01/08 12:36:32;;;;;;;10.03;6.40;;;14.30;99.90;;;;;;6077879;23;20164;-85
2023/01/08 12:40:01;;;;;;;8.37;6.23;;;14.30;99.90;;;;;;6165011;23;20253;-86
2023/01/08 12:42:31;;;;;;;8.43;5.93;;;14.20;99.90;;;;;;6124592;23;20176;-87
2023/01/08 12:45:01;;;;;;;6.30;5.67;;;14.10;99.90;;;;;;6151914;23;20153;-86
2023/01/08 12:47:36;;;;;;;9.33;6.33;;;14.10;99.90;;;;;;6126608;23;20156;-86
2023/01/08 12:50:23;;;;;;;9.80;6.37;;;14.10;99.90;;;;;;6126564;23;20174;-86
2023/01/08 12:53:21;;;;;;;9.80;6.10;;;14.00;99.90;;;;;;6127122;23;20168;-86
2023/01/08 12:56:20;;;;;;;9.40;6.53;;;14.00;99.90;;;;;;6151305;23;20167;-85
2023/01/08 12:59:14;;;;;;;8.27;6.10;;;14.00;99.90;;;;;;6151225;23;20275;-86
2023/01/08 13:01:49;;;;;;;6.40;5.53;;;14.00;99.90;;;;;;6126208;23;20218;-87
2023/01/08 13:04:16;;;;;;;11.13;6.47;;;13.90;99.90;;;;;;6127230;23;20190;-87
2023/01/08 13:07:03;;;;;;;7.03;6.33;;;13.90;99.90;;;;;;6136723;23;20277;-87
2023/01/08 13:09:38;;;;;;;8.47;6.10;;;13.90;99.90;;;;;;6146360;23;20179;-86
2023/01/08 13:12:07;;;;;;;7.73;6.20;;;13.90;99.90;;;;;;6142162;23;20190;-86
2023/01/08 13:14:54;;;;;;;9.50;6.40;;;13.90;99.90;;;;;;6145701;23;20191;-86
2023/01/08 13:17:24;;;;;;;6.70;6.00;;;13.90;99.90;;;;;;6142858;23;20168;-86
2023/01/08 13:20:03;;;;;;;6.70;6.00;;;13.90;99.90;;;;;;6157835;23;20678;-87
2023/01/08 13:22:33;;;;;;;6.47;5.83;;;13.90;99.90;;;;;;6126552;23;20470;-86
2023/01/08 13:25:27;;;;;;;6.80;6.10;;;13.80;99.90;;;;;;6142109;23;20156;-86
2023/01/08 13:27:59;;;;;;;7.80;6.77;;;13.80;99.90;;;;;;6171614;23;20156;-85